sensor_id;sensor_type;location;lat;lon;timestamp;P1;durP1;ratioP1;P2;durP2;ratioP2
58581;SDS011;44361;51.476;5.700;2023-03-01T00:01:05;10.73;;;6.50;;
58581;SDS011;44361;51.476;5.700;2023-03-01T00:03:32;9.35;;;6.45;;
58581;SDS011;44361;51.476;5.700;2023-03-01T00:05:59;10.00;;;6.30;;
58581;SDS011;44361;51.476;5.700;2023-03-01T00:08:25;13.02;;;7.10;;
58581;SDS011;44361;51.476;5.700;2023-03-01T00:11:01;15.20;;;6.60;;
58581;SDS011;44361;51.476;5.700;2023-03-01T00:13:28;14.65;;;6.47;;
58581;SDS011;44361;51.476;5.700;2023-03-01T00:15:54;13.55;;;6.63;;
58581;SDS011;44361;51.476;5.700;2023-03-01T00:18:19;10.95;;;6.53;;
58581;SDS011;44361;51.476;5.700;2023-03-01T00:20:52;12.23;;;6.72;;
58581;SDS011;44361;51.476;5.700;2023-03-01T00:23:18;11.10;;;7.25;;
58581;SDS011;44361;51.476;5.700;2023-03-01T00:25:44;12.18;;;6.63;;
58581;SDS011;44361;51.476;5.700;2023-03-01T00:28:10;11.85;;;7.13;;
58581;SDS011;44361;51.476;5.700;2023-03-01T00:30:36;11.10;;;5.82;;
58581;SDS011;44361;51.476;5.700;2023-03-01T00:33:01;11.48;;;6.28;;
58581;SDS011;44361;51.476;5.700;2023-03-01T00:35:27;13.77;;;6.65;;
58581;SDS011;44361;51.476;5.700;2023-03-01T00:37:53;15.57;;;6.63;;
58581;SDS011;44361;51.476;5.700;2023-03-01T00:40:23;10.70;;;6.55;;
58581;SDS011;44361;51.476;5.700;2023-03-01T00:42:49;14.18;;;6.47;;
58581;SDS011;44361;51.476;5.700;2023-03-01T00:45:15;11.07;;;6.85;;
58581;SDS011;44361;51.476;5.700;2023-03-01T00:47:41;13.18;;;7.00;;
58581;SDS011;44361;51.476;5.700;2023-03-01T00:50:06;12.00;;;6.90;;
58581;SDS011;44361;51.476;5.700;2023-03-01T00:52:32;11.52;;;6.82;;
58581;SDS011;44361;51.476;5.700;2023-03-01T00:54:58;11.70;;;6.97;;
58581;SDS011;44361;51.476;5.700;2023-03-01T00:57:23;11.88;;;5.78;;
58581;SDS011;44361;51.476;5.700;2023-03-01T00:59:49;12.30;;;6.55;;
58581;SDS011;44361;51.476;5.700;2023-03-01T01:02:14;11.63;;;6.72;;
58581;SDS011;44361;51.476;5.700;2023-03-01T01:04:40;11.68;;;6.30;;
58581;SDS011;44361;51.476;5.700;2023-03-01T01:07:06;11.40;;;6.20;;
58581;SDS011;44361;51.476;5.700;2023-03-01T01:09:31;10.75;;;6.10;;
58581;SDS011;44361;51.476;5.700;2023-03-01T01:11:57;11.45;;;5.95;;
58581;SDS011;44361;51.476;5.700;2023-03-01T01:14:23;11.27;;;6.40;;
58581;SDS011;44361;51.476;5.700;2023-03-01T01:16:48;9.75;;;6.13;;
58581;SDS011;44361;51.476;5.700;2023-03-01T01:19:14;11.38;;;6.95;;
58581;SDS011;44361;51.476;5.700;2023-03-01T01:21:40;10.85;;;6.00;;
58581;SDS011;44361;51.476;5.700;2023-03-01T01:24:08;11.57;;;5.93;;
58581;SDS011;44361;51.476;5.700;2023-03-01T01:26:33;11.35;;;5.60;;
58581;SDS011;44361;51.476;5.700;2023-03-01T01:29:00;13.07;;;6.72;;
58581;SDS011;44361;51.476;5.700;2023-03-01T01:31:27;12.50;;;6.47;;
58581;SDS011;44361;51.476;5.700;2023-03-01T01:33:53;11.48;;;5.90;;
58581;SDS011;44361;51.476;5.700;2023-03-01T01:36:20;12.15;;;6.47;;
58581;SDS011;44361;51.476;5.700;2023-03-01T01:38:46;9.43;;;5.45;;
58581;SDS011;44361;51.476;5.700;2023-03-01T01:41:12;12.00;;;6.35;;
58581;SDS011;44361;51.476;5.700;2023-03-01T01:43:40;10.95;;;5.95;;
58581;SDS011;44361;51.476;5.700;2023-03-01T01:49:06;9.93;;;5.97;;
58581;SDS011;44361;51.476;5.700;2023-03-01T01:51:42;12.02;;;6.43;;
58581;SDS011;44361;51.476;5.700;2023-03-01T01:54:30;10.30;;;5.43;;
58581;SDS011;44361;51.476;5.700;2023-03-01T01:57:02;10.70;;;6.13;;
58581;SDS011;44361;51.476;5.700;2023-03-01T01:59:31;11.45;;;6.18;;
58581;SDS011;44361;51.476;5.700;2023-03-01T02:01:59;11.55;;;6.55;;
58581;SDS011;44361;51.476;5.700;2023-03-01T02:04:28;10.27;;;5.97;;
58581;SDS011;44361;51.476;5.700;2023-03-01T02:07:00;16.88;;;6.75;;
58581;SDS011;44361;51.476;5.700;2023-03-01T02:09:30;11.85;;;6.25;;
58581;SDS011;44361;51.476;5.700;2023-03-01T02:11:57;12.70;;;6.65;;
58581;SDS011;44361;51.476;5.700;2023-03-01T02:14:23;12.32;;;6.50;;
58581;SDS011;44361;51.476;5.700;2023-03-01T02:16:48;12.88;;;6.15;;
58581;SDS011;44361;51.476;5.700;2023-03-01T02:19:39;12.68;;;6.72;;
58581;SDS011;44361;51.476;5.700;2023-03-01T02:22:23;9.80;;;5.45;;
58581;SDS011;44361;51.476;5.700;2023-03-01T02:27:33;12.27;;;6.35;;
58581;SDS011;44361;51.476;5.700;2023-03-01T02:30:05;12.82;;;6.65;;
58581;SDS011;44361;51.476;5.700;2023-03-01T02:32:32;11.55;;;6.35;;
58581;SDS011;44361;51.476;5.700;2023-03-01T02:34:59;10.98;;;5.78;;
58581;SDS011;44361;51.476;5.700;2023-03-01T02:37:24;12.55;;;6.75;;
58581;SDS011;44361;51.476;5.700;2023-03-01T02:39:56;13.07;;;6.30;;
58581;SDS011;44361;51.476;5.700;2023-03-01T02:42:30;12.60;;;6.57;;
58581;SDS011;44361;51.476;5.700;2023-03-01T02:45:00;10.45;;;6.38;;
58581;SDS011;44361;51.476;5.700;2023-03-01T02:47:26;10.48;;;6.13;;
58581;SDS011;44361;51.476;5.700;2023-03-01T02:49:51;11.38;;;6.40;;
58581;SDS011;44361;51.476;5.700;2023-03-01T02:57:27;10.30;;;6.15;;
58581;SDS011;44361;51.476;5.700;2023-03-01T02:59:55;13.88;;;7.15;;
58581;SDS011;44361;51.476;5.700;2023-03-01T03:05:05;12.38;;;6.40;;
58581;SDS011;44361;51.476;5.700;2023-03-01T03:07:33;12.32;;;6.30;;
58581;SDS011;44361;51.476;5.700;2023-03-01T03:10:01;13.25;;;7.05;;
58581;SDS011;44361;51.476;5.700;2023-03-01T03:12:28;13.88;;;6.53;;
58581;SDS011;44361;51.476;5.700;2023-03-01T03:14:53;13.85;;;6.65;;
58581;SDS011;44361;51.476;5.700;2023-03-01T03:17:19;12.10;;;6.60;;
58581;SDS011;44361;51.476;5.700;2023-03-01T03:19:44;10.73;;;6.28;;
58581;SDS011;44361;51.476;5.700;2023-03-01T03:22:10;11.10;;;6.82;;
58581;SDS011;44361;51.476;5.700;2023-03-01T03:24:37;11.48;;;6.82;;
58581;SDS011;44361;51.476;5.700;2023-03-01T03:27:06;12.38;;;6.72;;
58581;SDS011;44361;51.476;5.700;2023-03-01T03:29:32;12.88;;;6.65;;
58581;SDS011;44361;51.476;5.700;2023-03-01T03:31:58;13.75;;;6.18;;
58581;SDS011;44361;51.476;5.700;2023-03-01T03:34:24;13.15;;;6.57;;
58581;SDS011;44361;51.476;5.700;2023-03-01T03:36:53;13.05;;;6.45;;
58581;SDS011;44361;51.476;5.700;2023-03-01T03:39:22;11.68;;;6.68;;
58581;SDS011;44361;51.476;5.700;2023-03-01T03:41:48;11.60;;;6.75;;
58581;SDS011;44361;51.476;5.700;2023-03-01T03:44:13;13.70;;;7.13;;
58581;SDS011;44361;51.476;5.700;2023-03-01T03:46:39;13.43;;;7.40;;
58581;SDS011;44361;51.476;5.700;2023-03-01T03:49:05;13.35;;;6.60;;
58581;SDS011;44361;51.476;5.700;2023-03-01T03:51:30;11.40;;;7.00;;
58581;SDS011;44361;51.476;5.700;2023-03-01T03:53:56;12.80;;;7.20;;
58581;SDS011;44361;51.476;5.700;2023-03-01T03:56:21;10.43;;;6.28;;
58581;SDS011;44361;51.476;5.700;2023-03-01T03:58:50;13.90;;;6.90;;
58581;SDS011;44361;51.476;5.700;2023-03-01T04:01:19;11.68;;;6.65;;
58581;SDS011;44361;51.476;5.700;2023-03-01T04:03:44;10.70;;;6.22;;
58581;SDS011;44361;51.476;5.700;2023-03-01T04:06:12;14.88;;;7.03;;
58581;SDS011;44361;51.476;5.700;2023-03-01T04:08:38;12.98;;;7.43;;
58581;SDS011;44361;51.476;5.700;2023-03-01T04:11:04;13.07;;;6.50;;
58581;SDS011;44361;51.476;5.700;2023-03-01T04:13:49;12.13;;;6.93;;
58581;SDS011;44361;51.476;5.700;2023-03-01T04:16:14;13.98;;;7.22;;
58581;SDS011;44361;51.476;5.700;2023-03-01T04:18:40;11.52;;;6.30;;
58581;SDS011;44361;51.476;5.700;2023-03-01T04:21:06;15.05;;;7.32;;
58581;SDS011;44361;51.476;5.700;2023-03-01T04:23:31;13.45;;;7.10;;
58581;SDS011;44361;51.476;5.700;2023-03-01T04:25:58;15.15;;;7.55;;
58581;SDS011;44361;51.476;5.700;2023-03-01T04:30:58;15.95;;;7.55;;
58581;SDS011;44361;51.476;5.700;2023-03-01T04:33:37;14.32;;;8.20;;
58581;SDS011;44361;51.476;5.700;2023-03-01T04:36:15;14.30;;;7.43;;
58581;SDS011;44361;51.476;5.700;2023-03-01T04:38:42;14.57;;;8.07;;
58581;SDS011;44361;51.476;5.700;2023-03-01T04:41:12;13.55;;;7.05;;
58581;SDS011;44361;51.476;5.700;2023-03-01T04:43:38;12.48;;;7.22;;
58581;SDS011;44361;51.476;5.700;2023-03-01T04:46:05;11.48;;;6.70;;
58581;SDS011;44361;51.476;5.700;2023-03-01T04:48:33;12.60;;;6.93;;
58581;SDS011;44361;51.476;5.700;2023-03-01T04:51:00;17.70;;;7.43;;
58581;SDS011;44361;51.476;5.700;2023-03-01T04:53:26;16.52;;;7.47;;
58581;SDS011;44361;51.476;5.700;2023-03-01T04:55:53;12.93;;;7.53;;
58581;SDS011;44361;51.476;5.700;2023-03-01T04:58:21;14.60;;;7.38;;
58581;SDS011;44361;51.476;5.700;2023-03-01T05:00:53;14.05;;;6.57;;
58581;SDS011;44361;51.476;5.700;2023-03-01T05:03:19;13.60;;;7.43;;
58581;SDS011;44361;51.476;5.700;2023-03-01T05:05:46;14.23;;;7.15;;
58581;SDS011;44361;51.476;5.700;2023-03-01T05:08:13;14.52;;;7.00;;
58581;SDS011;44361;51.476;5.700;2023-03-01T05:10:43;15.48;;;7.80;;
58581;SDS011;44361;51.476;5.700;2023-03-01T05:13:11;12.30;;;6.88;;
58581;SDS011;44361;51.476;5.700;2023-03-01T05:15:38;17.40;;;8.02;;
58581;SDS011;44361;51.476;5.700;2023-03-01T05:18:04;14.30;;;7.10;;
58581;SDS011;44361;51.476;5.700;2023-03-01T05:20:36;13.40;;;7.22;;
58581;SDS011;44361;51.476;5.700;2023-03-01T05:23:02;16.02;;;7.43;;
58581;SDS011;44361;51.476;5.700;2023-03-01T05:25:30;15.02;;;6.82;;
58581;SDS011;44361;51.476;5.700;2023-03-01T05:28:02;14.60;;;8.10;;
58581;SDS011;44361;51.476;5.700;2023-03-01T05:30:30;15.05;;;8.05;;
58581;SDS011;44361;51.476;5.700;2023-03-01T05:32:56;16.33;;;7.63;;
58581;SDS011;44361;51.476;5.700;2023-03-01T05:35:22;16.85;;;7.05;;
58581;SDS011;44361;51.476;5.700;2023-03-01T05:37:48;11.52;;;6.93;;
58581;SDS011;44361;51.476;5.700;2023-03-01T05:40:15;16.38;;;7.50;;
58581;SDS011;44361;51.476;5.700;2023-03-01T05:42:46;14.65;;;7.43;;
58581;SDS011;44361;51.476;5.700;2023-03-01T05:45:14;15.55;;;7.30;;
58581;SDS011;44361;51.476;5.700;2023-03-01T05:47:41;14.73;;;7.43;;
58581;SDS011;44361;51.476;5.700;2023-03-01T05:50:09;12.23;;;6.90;;
58581;SDS011;44361;51.476;5.700;2023-03-01T05:52:39;13.75;;;7.50;;
58581;SDS011;44361;51.476;5.700;2023-03-01T05:55:05;15.30;;;7.53;;
58581;SDS011;44361;51.476;5.700;2023-03-01T05:57:31;16.17;;;7.22;;
58581;SDS011;44361;51.476;5.700;2023-03-01T05:59:56;16.10;;;8.02;;
58581;SDS011;44361;51.476;5.700;2023-03-01T06:02:22;14.45;;;8.30;;
58581;SDS011;44361;51.476;5.700;2023-03-01T06:04:48;19.17;;;7.53;;
58581;SDS011;44361;51.476;5.700;2023-03-01T06:07:13;19.58;;;8.82;;
58581;SDS011;44361;51.476;5.700;2023-03-01T06:09:39;16.92;;;7.65;;
58581;SDS011;44361;51.476;5.700;2023-03-01T06:12:04;16.45;;;7.53;;
58581;SDS011;44361;51.476;5.700;2023-03-01T06:14:30;15.27;;;7.68;;
58581;SDS011;44361;51.476;5.700;2023-03-01T06:16:56;16.77;;;8.60;;
58581;SDS011;44361;51.476;5.700;2023-03-01T06:19:22;15.35;;;8.02;;
58581;SDS011;44361;51.476;5.700;2023-03-01T06:21:47;18.35;;;8.25;;
58581;SDS011;44361;51.476;5.700;2023-03-01T06:24:13;13.80;;;8.05;;
58581;SDS011;44361;51.476;5.700;2023-03-01T06:26:38;15.05;;;8.57;;
58581;SDS011;44361;51.476;5.700;2023-03-01T06:29:04;18.20;;;7.85;;
58581;SDS011;44361;51.476;5.700;2023-03-01T06:31:29;19.85;;;8.27;;
58581;SDS011;44361;51.476;5.700;2023-03-01T06:33:55;18.85;;;8.65;;
58581;SDS011;44361;51.476;5.700;2023-03-01T06:36:20;13.88;;;7.57;;
58581;SDS011;44361;51.476;5.700;2023-03-01T06:38:46;16.45;;;8.25;;
58581;SDS011;44361;51.476;5.700;2023-03-01T06:41:12;14.27;;;8.05;;
58581;SDS011;44361;51.476;5.700;2023-03-01T06:43:37;15.57;;;8.30;;
58581;SDS011;44361;51.476;5.700;2023-03-01T06:46:04;17.48;;;8.45;;
58581;SDS011;44361;51.476;5.700;2023-03-01T06:48:31;14.13;;;8.23;;
58581;SDS011;44361;51.476;5.700;2023-03-01T06:50:58;16.23;;;9.00;;
58581;SDS011;44361;51.476;5.700;2023-03-01T06:53:25;15.38;;;8.38;;
58581;SDS011;44361;51.476;5.700;2023-03-01T06:55:58;17.08;;;8.35;;
58581;SDS011;44361;51.476;5.700;2023-03-01T06:58:25;16.85;;;8.40;;
58581;SDS011;44361;51.476;5.700;2023-03-01T07:00:50;17.05;;;8.52;;
58581;SDS011;44361;51.476;5.700;2023-03-01T07:03:16;15.82;;;8.18;;
58581;SDS011;44361;51.476;5.700;2023-03-01T07:05:42;18.02;;;9.38;;
58581;SDS011;44361;51.476;5.700;2023-03-01T07:08:07;16.35;;;8.52;;
58581;SDS011;44361;51.476;5.700;2023-03-01T07:10:33;18.55;;;8.50;;
58581;SDS011;44361;51.476;5.700;2023-03-01T07:12:58;16.50;;;9.00;;
58581;SDS011;44361;51.476;5.700;2023-03-01T07:15:24;19.63;;;9.05;;
58581;SDS011;44361;51.476;5.700;2023-03-01T07:17:50;13.50;;;8.07;;
58581;SDS011;44361;51.476;5.700;2023-03-01T07:20:17;16.08;;;8.35;;
58581;SDS011;44361;51.476;5.700;2023-03-01T07:22:44;15.48;;;8.50;;
58581;SDS011;44361;51.476;5.700;2023-03-01T07:25:09;17.27;;;8.93;;
58581;SDS011;44361;51.476;5.700;2023-03-01T07:27:36;18.30;;;8.93;;
58581;SDS011;44361;51.476;5.700;2023-03-01T07:30:02;16.10;;;8.80;;
58581;SDS011;44361;51.476;5.700;2023-03-01T07:32:27;16.35;;;8.68;;
58581;SDS011;44361;51.476;5.700;2023-03-01T07:34:53;17.08;;;9.50;;
58581;SDS011;44361;51.476;5.700;2023-03-01T07:37:18;20.08;;;8.73;;
58581;SDS011;44361;51.476;5.700;2023-03-01T07:39:44;19.15;;;8.90;;
58581;SDS011;44361;51.476;5.700;2023-03-01T07:42:10;19.67;;;9.05;;
58581;SDS011;44361;51.476;5.700;2023-03-01T07:44:35;19.77;;;8.95;;
58581;SDS011;44361;51.476;5.700;2023-03-01T07:47:01;19.10;;;8.85;;
58581;SDS011;44361;51.476;5.700;2023-03-01T07:49:27;17.08;;;8.57;;
58581;SDS011;44361;51.476;5.700;2023-03-01T07:51:53;16.52;;;8.52;;
58581;SDS011;44361;51.476;5.700;2023-03-01T07:54:19;17.80;;;7.78;;
58581;SDS011;44361;51.476;5.700;2023-03-01T07:56:44;11.48;;;7.32;;
58581;SDS011;44361;51.476;5.700;2023-03-01T07:59:10;14.05;;;8.00;;
58581;SDS011;44361;51.476;5.700;2023-03-01T08:01:35;13.30;;;7.65;;
58581;SDS011;44361;51.476;5.700;2023-03-01T08:04:01;14.02;;;8.02;;
58581;SDS011;44361;51.476;5.700;2023-03-01T08:06:26;13.00;;;7.97;;
58581;SDS011;44361;51.476;5.700;2023-03-01T08:08:52;13.35;;;7.45;;
58581;SDS011;44361;51.476;5.700;2023-03-01T08:11:20;11.77;;;6.90;;
58581;SDS011;44361;51.476;5.700;2023-03-01T08:13:47;13.85;;;7.70;;
58581;SDS011;44361;51.476;5.700;2023-03-01T08:16:14;13.07;;;7.60;;
58581;SDS011;44361;51.476;5.700;2023-03-01T08:18:40;11.80;;;7.13;;
58581;SDS011;44361;51.476;5.700;2023-03-01T08:21:08;14.32;;;7.95;;
58581;SDS011;44361;51.476;5.700;2023-03-01T08:23:35;12.57;;;7.15;;
58581;SDS011;44361;51.476;5.700;2023-03-01T08:26:08;16.15;;;7.78;;
58581;SDS011;44361;51.476;5.700;2023-03-01T08:28:39;14.95;;;7.90;;
58581;SDS011;44361;51.476;5.700;2023-03-01T08:31:27;14.15;;;7.30;;
58581;SDS011;44361;51.476;5.700;2023-03-01T08:33:52;13.57;;;7.57;;
58581;SDS011;44361;51.476;5.700;2023-03-01T08:36:25;15.85;;;7.43;;
58581;SDS011;44361;51.476;5.700;2023-03-01T08:38:57;16.92;;;7.28;;
58581;SDS011;44361;51.476;5.700;2023-03-01T08:41:23;14.45;;;7.47;;
58581;SDS011;44361;51.476;5.700;2023-03-01T08:43:49;11.38;;;6.72;;
58581;SDS011;44361;51.476;5.700;2023-03-01T08:46:15;12.55;;;7.20;;
58581;SDS011;44361;51.476;5.700;2023-03-01T08:48:41;13.45;;;7.40;;
58581;SDS011;44361;51.476;5.700;2023-03-01T08:51:13;10.52;;;7.05;;
58581;SDS011;44361;51.476;5.700;2023-03-01T08:53:40;12.55;;;6.85;;
58581;SDS011;44361;51.476;5.700;2023-03-01T08:56:06;12.65;;;6.88;;
58581;SDS011;44361;51.476;5.700;2023-03-01T08:58:32;15.90;;;7.07;;
58581;SDS011;44361;51.476;5.700;2023-03-01T09:00:58;14.38;;;7.13;;
58581;SDS011;44361;51.476;5.700;2023-03-01T09:03:24;14.88;;;7.70;;
58581;SDS011;44361;51.476;5.700;2023-03-01T09:05:50;14.57;;;8.00;;
58581;SDS011;44361;51.476;5.700;2023-03-01T09:08:17;14.13;;;7.53;;
58581;SDS011;44361;51.476;5.700;2023-03-01T09:10:43;11.57;;;7.07;;
58581;SDS011;44361;51.476;5.700;2023-03-01T09:13:08;13.98;;;7.32;;
58581;SDS011;44361;51.476;5.700;2023-03-01T09:15:36;14.75;;;7.40;;
58581;SDS011;44361;51.476;5.700;2023-03-01T09:18:02;12.82;;;7.05;;
58581;SDS011;44361;51.476;5.700;2023-03-01T09:20:27;14.65;;;7.47;;
58581;SDS011;44361;51.476;5.700;2023-03-01T09:22:53;21.90;;;6.60;;
58581;SDS011;44361;51.476;5.700;2023-03-01T09:25:19;13.00;;;7.63;;
58581;SDS011;44361;51.476;5.700;2023-03-01T09:27:44;13.05;;;6.55;;
58581;SDS011;44361;51.476;5.700;2023-03-01T09:30:10;11.13;;;6.43;;
58581;SDS011;44361;51.476;5.700;2023-03-01T09:32:36;10.68;;;5.90;;
58581;SDS011;44361;51.476;5.700;2023-03-01T09:35:01;11.90;;;6.50;;
58581;SDS011;44361;51.476;5.700;2023-03-01T09:37:31;11.30;;;6.93;;
58581;SDS011;44361;51.476;5.700;2023-03-01T09:40:00;11.50;;;6.75;;
58581;SDS011;44361;51.476;5.700;2023-03-01T09:42:27;11.30;;;6.75;;
58581;SDS011;44361;51.476;5.700;2023-03-01T09:44:57;12.30;;;6.97;;
58581;SDS011;44361;51.476;5.700;2023-03-01T09:47:29;10.75;;;6.40;;
58581;SDS011;44361;51.476;5.700;2023-03-01T09:55:12;15.05;;;7.63;;
58581;SDS011;44361;51.476;5.700;2023-03-01T09:57:45;13.48;;;7.00;;
58581;SDS011;44361;51.476;5.700;2023-03-01T10:02:46;13.18;;;7.40;;
58581;SDS011;44361;51.476;5.700;2023-03-01T10:05:25;15.85;;;7.80;;
58581;SDS011;44361;51.476;5.700;2023-03-01T10:10:34;14.32;;;7.18;;
58581;SDS011;44361;51.476;5.700;2023-03-01T10:13:04;14.23;;;7.20;;
58581;SDS011;44361;51.476;5.700;2023-03-01T10:15:48;15.60;;;7.97;;
58581;SDS011;44361;51.476;5.700;2023-03-01T10:18:20;16.25;;;7.22;;
58581;SDS011;44361;51.476;5.700;2023-03-01T10:21:01;12.50;;;7.88;;
58581;SDS011;44361;51.476;5.700;2023-03-01T10:23:32;13.90;;;7.53;;
58581;SDS011;44361;51.476;5.700;2023-03-01T10:26:09;12.43;;;7.60;;
58581;SDS011;44361;51.476;5.700;2023-03-01T10:31:13;15.40;;;7.65;;
58581;SDS011;44361;51.476;5.700;2023-03-01T10:33:52;11.90;;;7.18;;
58581;SDS011;44361;51.476;5.700;2023-03-01T10:36:20;13.80;;;7.65;;
58581;SDS011;44361;51.476;5.700;2023-03-01T10:38:55;14.23;;;7.28;;
58581;SDS011;44361;51.476;5.700;2023-03-01T10:41:23;13.40;;;7.68;;
58581;SDS011;44361;51.476;5.700;2023-03-01T10:43:54;11.88;;;7.05;;
58581;SDS011;44361;51.476;5.700;2023-03-01T10:46:29;14.07;;;7.50;;
58581;SDS011;44361;51.476;5.700;2023-03-01T10:49:17;13.02;;;7.10;;
58581;SDS011;44361;51.476;5.700;2023-03-01T10:51:45;13.85;;;7.32;;
58581;SDS011;44361;51.476;5.700;2023-03-01T10:54:20;14.10;;;6.82;;
58581;SDS011;44361;51.476;5.700;2023-03-01T10:56:53;11.00;;;6.88;;
58581;SDS011;44361;51.476;5.700;2023-03-01T11:02:12;12.70;;;6.13;;
58581;SDS011;44361;51.476;5.700;2023-03-01T11:04:57;12.05;;;7.15;;
58581;SDS011;44361;51.476;5.700;2023-03-01T11:07:58;14.57;;;6.57;;
58581;SDS011;44361;51.476;5.700;2023-03-01T11:10:26;13.90;;;6.38;;
58581;SDS011;44361;51.476;5.700;2023-03-01T11:13:15;12.60;;;7.00;;
58581;SDS011;44361;51.476;5.700;2023-03-01T11:15:43;11.30;;;6.88;;
58581;SDS011;44361;51.476;5.700;2023-03-01T11:18:23;11.07;;;5.90;;
58581;SDS011;44361;51.476;5.700;2023-03-01T11:20:51;8.93;;;6.00;;
58581;SDS011;44361;51.476;5.700;2023-03-01T11:23:19;12.35;;;6.18;;
58581;SDS011;44361;51.476;5.700;2023-03-01T11:25:57;10.15;;;5.68;;
58581;SDS011;44361;51.476;5.700;2023-03-01T11:28:27;10.05;;;5.80;;
58581;SDS011;44361;51.476;5.700;2023-03-01T11:33:33;10.23;;;5.97;;
58581;SDS011;44361;51.476;5.700;2023-03-01T11:38:57;10.98;;;6.55;;
58581;SDS011;44361;51.476;5.700;2023-03-01T11:41:31;14.40;;;5.63;;
58581;SDS011;44361;51.476;5.700;2023-03-01T11:44:01;8.65;;;5.45;;
58581;SDS011;44361;51.476;5.700;2023-03-01T11:52:36;8.88;;;5.43;;
58581;SDS011;44361;51.476;5.700;2023-03-01T12:00:00;10.00;;;5.55;;
58581;SDS011;44361;51.476;5.700;2023-03-01T12:03:02;24.48;;;6.30;;
58581;SDS011;44361;51.476;5.700;2023-03-01T12:08:35;10.27;;;5.80;;
58581;SDS011;44361;51.476;5.700;2023-03-01T12:11:05;11.15;;;5.50;;
58581;SDS011;44361;51.476;5.700;2023-03-01T12:16:20;7.07;;;4.93;;
58581;SDS011;44361;51.476;5.700;2023-03-01T12:25:16;8.03;;;4.63;;
58581;SDS011;44361;51.476;5.700;2023-03-01T12:30:51;7.32;;;5.18;;
58581;SDS011;44361;51.476;5.700;2023-03-01T12:51:14;11.52;;;5.40;;
58581;SDS011;44361;51.476;5.700;2023-03-01T12:53:47;12.48;;;5.55;;
58581;SDS011;44361;51.476;5.700;2023-03-01T12:56:24;8.32;;;5.40;;
58581;SDS011;44361;51.476;5.700;2023-03-01T12:59:11;9.50;;;4.88;;
58581;SDS011;44361;51.476;5.700;2023-03-01T13:01:59;13.15;;;5.18;;
58581;SDS011;44361;51.476;5.700;2023-03-01T13:04:57;10.45;;;5.70;;
58581;SDS011;44361;51.476;5.700;2023-03-01T13:07:55;11.38;;;5.10;;
58581;SDS011;44361;51.476;5.700;2023-03-01T13:13:19;11.95;;;5.65;;
58581;SDS011;44361;51.476;5.700;2023-03-01T13:15:44;10.23;;;5.10;;
58581;SDS011;44361;51.476;5.700;2023-03-01T13:33:47;7.70;;;5.03;;
58581;SDS011;44361;51.476;5.700;2023-03-01T13:44:24;9.80;;;4.90;;
58581;SDS011;44361;51.476;5.700;2023-03-01T13:55:14;8.25;;;4.90;;
58581;SDS011;44361;51.476;5.700;2023-03-01T13:57:45;10.23;;;4.82;;
58581;SDS011;44361;51.476;5.700;2023-03-01T14:00:28;10.77;;;5.15;;
58581;SDS011;44361;51.476;5.700;2023-03-01T14:03:05;8.18;;;4.97;;
58581;SDS011;44361;51.476;5.700;2023-03-01T14:05:34;11.13;;;5.20;;
58581;SDS011;44361;51.476;5.700;2023-03-01T14:08:01;8.88;;;5.25;;
58581;SDS011;44361;51.476;5.700;2023-03-01T14:10:43;9.32;;;5.60;;
58581;SDS011;44361;51.476;5.700;2023-03-01T14:16:04;12.27;;;5.53;;
58581;SDS011;44361;51.476;5.700;2023-03-01T14:21:33;11.15;;;5.82;;
58581;SDS011;44361;51.476;5.700;2023-03-01T14:24:00;8.60;;;5.10;;
58581;SDS011;44361;51.476;5.700;2023-03-01T14:26:25;8.23;;;4.80;;
58581;SDS011;44361;51.476;5.700;2023-03-01T14:28:51;10.63;;;5.28;;
58581;SDS011;44361;51.476;5.700;2023-03-01T14:31:31;10.02;;;5.38;;
58581;SDS011;44361;51.476;5.700;2023-03-01T14:34:02;7.97;;;5.13;;
58581;SDS011;44361;51.476;5.700;2023-03-01T14:36:29;10.77;;;5.35;;
58581;SDS011;44361;51.476;5.700;2023-03-01T14:38:56;10.32;;;5.35;;
58581;SDS011;44361;51.476;5.700;2023-03-01T14:41:29;10.52;;;5.25;;
58581;SDS011;44361;51.476;5.700;2023-03-01T14:44:00;10.25;;;5.93;;
58581;SDS011;44361;51.476;5.700;2023-03-01T14:48:57;10.40;;;6.15;;
58581;SDS011;44361;51.476;5.700;2023-03-01T14:51:28;10.77;;;5.78;;
58581;SDS011;44361;51.476;5.700;2023-03-01T14:53:53;10.23;;;5.75;;
58581;SDS011;44361;51.476;5.700;2023-03-01T14:56:20;8.52;;;5.68;;
58581;SDS011;44361;51.476;5.700;2023-03-01T14:58:46;8.77;;;5.45;;
58581;SDS011;44361;51.476;5.700;2023-03-01T15:01:15;11.30;;;5.63;;
58581;SDS011;44361;51.476;5.700;2023-03-01T15:03:42;11.43;;;5.90;;
58581;SDS011;44361;51.476;5.700;2023-03-01T15:06:14;10.82;;;6.00;;
58581;SDS011;44361;51.476;5.700;2023-03-01T15:08:44;10.05;;;6.32;;
58581;SDS011;44361;51.476;5.700;2023-03-01T15:13:49;12.50;;;6.00;;
58581;SDS011;44361;51.476;5.700;2023-03-01T15:16:17;10.27;;;5.65;;
58581;SDS011;44361;51.476;5.700;2023-03-01T15:18:50;10.65;;;6.25;;
58581;SDS011;44361;51.476;5.700;2023-03-01T15:21:39;10.05;;;5.55;;
58581;SDS011;44361;51.476;5.700;2023-03-01T15:24:26;10.82;;;5.65;;
58581;SDS011;44361;51.476;5.700;2023-03-01T15:26:53;12.75;;;6.50;;
58581;SDS011;44361;51.476;5.700;2023-03-01T15:29:27;10.05;;;6.05;;
58581;SDS011;44361;51.476;5.700;2023-03-01T15:32:05;8.27;;;5.72;;
58581;SDS011;44361;51.476;5.700;2023-03-01T15:34:51;9.55;;;5.93;;
58581;SDS011;44361;51.476;5.700;2023-03-01T15:37:35;9.65;;;5.78;;
58581;SDS011;44361;51.476;5.700;2023-03-01T15:40:26;11.77;;;5.85;;
58581;SDS011;44361;51.476;5.700;2023-03-01T15:43:03;12.50;;;6.20;;
58581;SDS011;44361;51.476;5.700;2023-03-01T15:45:31;10.60;;;5.88;;
58581;SDS011;44361;51.476;5.700;2023-03-01T15:48:20;13.30;;;6.53;;
58581;SDS011;44361;51.476;5.700;2023-03-01T15:50:46;12.30;;;6.55;;
58581;SDS011;44361;51.476;5.700;2023-03-01T15:53:23;16.35;;;7.22;;
58581;SDS011;44361;51.476;5.700;2023-03-01T15:55:49;10.55;;;5.47;;
58581;SDS011;44361;51.476;5.700;2023-03-01T16:00:41;13.13;;;6.57;;
58581;SDS011;44361;51.476;5.700;2023-03-01T16:03:08;11.05;;;6.28;;
58581;SDS011;44361;51.476;5.700;2023-03-01T16:05:37;12.60;;;6.25;;
58581;SDS011;44361;51.476;5.700;2023-03-01T16:08:03;13.05;;;6.63;;
58581;SDS011;44361;51.476;5.700;2023-03-01T16:10:34;9.95;;;6.32;;
58581;SDS011;44361;51.476;5.700;2023-03-01T16:13:00;12.20;;;6.90;;
58581;SDS011;44361;51.476;5.700;2023-03-01T16:15:30;15.95;;;6.07;;
58581;SDS011;44361;51.476;5.700;2023-03-01T16:17:57;13.30;;;6.20;;
58581;SDS011;44361;51.476;5.700;2023-03-01T16:20:25;12.80;;;6.47;;
58581;SDS011;44361;51.476;5.700;2023-03-01T16:22:52;9.05;;;5.32;;
58581;SDS011;44361;51.476;5.700;2023-03-01T16:25:18;11.98;;;6.07;;
58581;SDS011;44361;51.476;5.700;2023-03-01T16:27:45;14.52;;;6.32;;
58581;SDS011;44361;51.476;5.700;2023-03-01T16:30:13;13.48;;;6.43;;
58581;SDS011;44361;51.476;5.700;2023-03-01T16:32:41;12.00;;;6.70;;
58581;SDS011;44361;51.476;5.700;2023-03-01T16:35:08;9.75;;;6.03;;
58581;SDS011;44361;51.476;5.700;2023-03-01T16:37:35;8.30;;;5.90;;
58581;SDS011;44361;51.476;5.700;2023-03-01T16:40:02;10.73;;;5.88;;
58581;SDS011;44361;51.476;5.700;2023-03-01T16:42:33;13.07;;;6.25;;
58581;SDS011;44361;51.476;5.700;2023-03-01T16:44:59;10.20;;;5.97;;
58581;SDS011;44361;51.476;5.700;2023-03-01T16:47:26;12.02;;;6.32;;
58581;SDS011;44361;51.476;5.700;2023-03-01T16:49:52;14.38;;;6.07;;
58581;SDS011;44361;51.476;5.700;2023-03-01T16:52:19;11.80;;;6.22;;
58581;SDS011;44361;51.476;5.700;2023-03-01T16:54:45;12.88;;;6.38;;
58581;SDS011;44361;51.476;5.700;2023-03-01T16:57:10;12.52;;;6.43;;